Time;durP1;ratioP1;P1;durP2;ratioP2;P2;SDS_P1;SDS_P2;PMS_P1;PMS_P2;Temp;Humidity;BMP_temperature;BMP_pressure;BME280_temperature;BME280_humidity;BME280_pressure;Samples;Min_cycle;Max_cycle;Signal;HPM_P1;HPM_P2
2022/01/29 00:01:38;;;;;;;3.43;2.73;;;2.60;99.90;;;;;;5064162;28;20189;-54
2022/01/29 00:04:03;;;;;;;4.90;2.73;;;2.60;99.90;;;;;;5064663;28;20212;-59
2022/01/29 00:06:29;;;;;;;3.97;2.30;;;2.60;99.90;;;;;;5064075;28;20624;-57
2022/01/29 00:08:57;;;;;;;2.37;2.17;;;2.50;99.90;;;;;;5064670;28;20241;-54
2022/01/29 00:11:28;;;;;;;2.93;2.17;;;2.60;99.90;;;;;;5063115;28;20182;-61
2022/01/29 00:13:55;;;;;;;3.17;1.83;;;2.50;99.90;;;;;;5065216;28;20170;-51
2022/01/29 00:16:21;;;;;;;2.47;2.17;;;2.50;99.90;;;;;;5064398;28;20181;-52
2022/01/29 00:18:46;;;;;;;3.60;2.07;;;2.50;99.90;;;;;;5064857;28;20207;-53
2022/01/29 00:21:12;;;;;;;7.47;2.67;;;2.50;99.90;;;;;;5065129;28;20273;-55
2022/01/29 00:23:38;;;;;;;4.17;1.93;;;2.50;99.90;;;;;;5064332;28;20189;-57
2022/01/29 00:26:05;;;;;;;2.17;1.70;;;2.40;99.90;;;;;;5065412;28;20190;-57
2022/01/29 00:28:33;;;;;;;2.40;2.07;;;2.50;99.90;;;;;;5063626;28;20217;-56
2022/01/29 00:30:59;;;;;;;4.17;2.00;;;2.50;99.90;;;;;;5068994;28;20208;-58
2022/01/29 00:33:25;;;;;;;5.07;2.07;;;2.50;99.90;;;;;;5067266;28;20274;-59
2022/01/29 00:35:51;;;;;;;2.57;2.37;;;2.50;99.90;;;;;;5069105;28;20270;-50
2022/01/29 00:38:17;;;;;;;2.23;2.03;;;2.50;99.90;;;;;;5068466;28;20215;-56
2022/01/29 00:40:45;;;;;;;2.33;2.00;;;2.50;99.90;;;;;;5068195;28;20192;-59
2022/01/29 00:43:10;;;;;;;2.10;2.00;;;2.50;99.90;;;;;;5069182;28;20200;-60
2022/01/29 00:45:36;;;;;;;2.40;2.20;;;2.50;99.90;;;;;;5067048;28;20178;-57
2022/01/29 00:48:03;;;;;;;2.40;2.20;;;2.50;99.90;;;;;;5069102;28;20218;-60
2022/01/29 00:50:28;;;;;;;4.07;2.00;;;2.50;99.90;;;;;;5066709;28;20188;-53
2022/01/29 00:52:54;;;;;;;2.80;2.03;;;2.50;99.90;;;;;;5068698;28;20190;-56
2022/01/29 00:55:20;;;;;;;3.30;2.80;;;2.40;99.90;;;;;;5067670;28;20181;-57
2022/01/29 00:57:46;;;;;;;6.60;2.83;;;2.40;99.90;;;;;;5068177;28;20201;-57
2022/01/29 01:00:14;;;;;;;3.43;3.13;;;2.50;99.90;;;;;;5068292;28;20221;-60
2022/01/29 01:02:41;;;;;;;4.00;3.03;;;2.50;99.90;;;;;;5067610;28;20181;-60
2022/01/29 01:05:07;;;;;;;4.63;2.90;;;2.50;99.90;;;;;;5068513;28;20251;-54
2022/01/29 01:07:33;;;;;;;2.97;2.73;;;2.50;99.90;;;;;;5066697;28;20200;-53
2022/01/29 01:09:59;;;;;;;2.90;2.70;;;2.50;99.90;;;;;;5068824;28;20196;-55
2022/01/29 01:12:25;;;;;;;7.63;2.53;;;2.50;99.90;;;;;;5067487;28;20193;-58
2022/01/29 01:14:50;;;;;;;2.40;2.20;;;2.50;99.90;;;;;;5067780;28;20193;-57
2022/01/29 01:17:18;;;;;;;4.03;2.47;;;2.50;99.90;;;;;;5068357;28;20222;-55
2022/01/29 01:19:45;;;;;;;2.23;1.70;;;2.50;99.90;;;;;;5067493;28;20215;-54
2022/01/29 01:22:14;;;;;;;3.70;3.00;;;2.50;99.90;;;;;;5067845;28;20190;-53
2022/01/29 01:24:41;;;;;;;3.33;2.80;;;2.50;99.90;;;;;;5066414;28;20274;-55
2022/01/29 01:27:07;;;;;;;2.50;2.00;;;2.50;99.90;;;;;;5068520;28;20193;-51
2022/01/29 01:29:33;;;;;;;4.57;2.70;;;2.50;99.90;;;;;;5065648;28;20259;-49
2022/01/29 01:31:59;;;;;;;2.80;1.93;;;2.50;99.90;;;;;;5068388;28;20198;-51
2022/01/29 01:34:29;;;;;;;3.00;2.73;;;2.60;99.90;;;;;;5067258;28;20194;-52
2022/01/29 01:37:00;;;;;;;3.43;2.60;;;2.60;99.90;;;;;;5066761;28;20178;-52
2022/01/29 01:39:30;;;;;;;3.23;2.13;;;2.60;99.90;;;;;;5067174;28;20230;-52
2022/01/29 01:42:03;;;;;;;2.97;2.63;;;2.60;99.90;;;;;;5066766;28;20284;-55
2022/01/29 01:44:46;;;;;;;4.23;2.13;;;2.60;99.90;;;;;;5067731;28;20205;-57
2022/01/29 01:47:13;;;;;;;4.03;2.67;;;2.60;99.90;;;;;;5066479;28;20253;-56
2022/01/29 01:49:39;;;;;;;6.00;2.57;;;2.60;99.90;;;;;;5067180;28;20221;-54
2022/01/29 01:52:11;;;;;;;4.20;3.27;;;2.70;99.90;;;;;;5067483;28;20253;-55
2022/01/29 01:54:41;;;;;;;2.63;2.40;;;2.60;99.90;;;;;;5066344;28;20221;-62
2022/01/29 01:57:07;;;;;;;4.63;2.00;;;2.70;99.90;;;;;;5067711;28;20216;-52
2022/01/29 01:59:33;;;;;;;2.30;2.10;;;2.60;99.90;;;;;;5066512;28;20217;-60
2022/01/29 02:02:00;;;;;;;8.27;3.27;;;2.60;99.90;;;;;;5067865;28;20190;-57
2022/01/29 02:04:26;;;;;;;5.20;3.03;;;2.60;99.90;;;;;;5065683;28;20228;-54
2022/01/29 02:06:53;;;;;;;3.23;2.30;;;2.60;99.90;;;;;;5066945;28;20203;-55
2022/01/29 02:09:21;;;;;;;4.27;2.13;;;2.60;99.90;;;;;;5066990;28;20206;-60
2022/01/29 02:11:56;;;;;;;3.47;1.93;;;2.60;99.90;;;;;;5066391;28;20193;-50
2022/01/29 02:14:27;;;;;;;7.27;2.53;;;2.60;99.90;;;;;;5067812;28;20189;-59
2022/01/29 02:16:54;;;;;;;3.17;2.27;;;2.50;99.90;;;;;;5065411;28;20182;-60
2022/01/29 02:19:19;;;;;;;3.47;2.10;;;2.50;99.90;;;;;;5067185;28;20284;-56
2022/01/29 02:21:45;;;;;;;3.47;2.43;;;2.50;99.90;;;;;;5065887;28;20277;-56
2022/01/29 02:24:11;;;;;;;3.00;2.53;;;2.40;99.90;;;;;;5066255;28;20197;-54
2022/01/29 02:26:37;;;;;;;3.87;2.63;;;2.40;99.90;;;;;;5066763;28;20194;-59
2022/01/29 02:29:03;;;;;;;4.17;3.17;;;2.30;99.90;;;;;;5065775;28;20378;-53
2022/01/29 02:31:28;;;;;;;5.07;2.90;;;2.30;99.90;;;;;;5066729;28;20225;-56
2022/01/29 02:33:54;;;;;;;2.43;2.23;;;2.30;99.90;;;;;;5065451;28;20217;-61
2022/01/29 02:36:20;;;;;;;3.37;2.30;;;2.30;99.90;;;;;;5067053;28;20212;-57
2022/01/29 02:38:46;;;;;;;3.40;3.10;;;2.40;99.90;;;;;;5064729;28;20226;-60
2022/01/29 02:41:12;;;;;;;4.00;2.10;;;2.30;99.90;;;;;;5067110;28;20189;-56
2022/01/29 02:49:28;;;;;;;3.93;2.40;;;2.30;99.90;;;;;;5084332;28;20347;-52
2022/01/29 02:51:56;;;;;;;6.90;2.83;;;2.30;99.90;;;;;;5065243;28;20258;-58
2022/01/29 02:54:24;;;;;;;2.23;2.13;;;2.20;99.90;;;;;;5067413;28;20197;-57
2022/01/29 02:56:51;;;;;;;5.47;2.80;;;2.20;99.90;;;;;;5066645;28;20189;-54
2022/01/29 02:59:18;;;;;;;2.33;2.13;;;2.10;99.90;;;;;;5066013;28;20200;-59
2022/01/29 03:01:44;;;;;;;5.27;2.30;;;2.00;99.90;;;;;;5066962;28;20251;-56
2022/01/29 03:04:10;;;;;;;3.97;2.30;;;1.90;99.90;;;;;;5065876;28;20274;-52
2022/01/29 03:06:36;;;;;;;8.80;3.30;;;1.90;99.90;;;;;;5067027;28;20240;-61
2022/01/29 03:09:03;;;;;;;2.70;2.50;;;1.90;99.90;;;;;;5065162;28;20228;-59
2022/01/29 03:11:29;;;;;;;4.10;2.27;;;1.90;99.90;;;;;;5066979;28;20181;-60
2022/01/29 03:13:55;;;;;;;4.00;2.33;;;1.80;99.90;;;;;;5066217;28;20266;-58
2022/01/29 03:16:21;;;;;;;4.33;2.27;;;1.80;99.90;;;;;;5066120;28;20184;-57
2022/01/29 03:18:47;;;;;;;2.30;2.07;;;1.70;99.90;;;;;;5066951;28;20181;-52
2022/01/29 03:21:13;;;;;;;4.00;2.77;;;1.60;99.90;;;;;;5065442;28;20189;-52
2022/01/29 03:23:39;;;;;;;5.27;2.43;;;1.50;99.90;;;;;;5066341;28;20182;-51
2022/01/29 03:26:06;;;;;;;3.50;1.97;;;1.60;99.90;;;;;;5064730;28;20186;-49
2022/01/29 03:28:31;;;;;;;3.33;3.03;;;1.60;99.90;;;;;;5066740;28;20213;-52
2022/01/29 03:30:57;;;;;;;2.27;2.07;;;1.70;99.90;;;;;;5064697;28;20189;-53
2022/01/29 03:33:24;;;;;;;4.20;2.60;;;1.70;99.90;;;;;;5066435;28;20259;-56
2022/01/29 03:35:52;;;;;;;4.13;2.63;;;1.80;99.90;;;;;;5065803;28;20189;-55
2022/01/29 03:38:18;;;;;;;4.93;3.00;;;1.80;99.90;;;;;;5065108;28;20185;-56
2022/01/29 03:40:47;;;;;;;3.90;1.97;;;1.80;99.90;;;;;;5066134;28;20306;-50
2022/01/29 03:43:15;;;;;;;2.07;1.73;;;1.80;99.90;;;;;;5065076;28;20349;-54
2022/01/29 03:45:41;;;;;;;4.93;2.80;;;1.80;99.90;;;;;;5066582;28;20181;-53
2022/01/29 03:48:07;;;;;;;5.17;2.20;;;1.80;99.90;;;;;;5064005;28;20255;-53
2022/01/29 03:50:33;;;;;;;2.93;2.70;;;1.80;99.90;;;;;;5066517;28;20190;-51
2022/01/29 03:52:59;;;;;;;4.27;1.57;;;1.80;99.90;;;;;;5065344;28;20185;-57
2022/01/29 03:55:25;;;;;;;5.73;2.37;;;1.80;99.90;;;;;;5065598;28;20189;-56
2022/01/29 03:57:52;;;;;;;2.77;2.10;;;1.80;99.90;;;;;;5066338;28;20189;-54
2022/01/29 04:00:18;;;;;;;3.30;1.60;;;1.80;99.90;;;;;;5064537;28;20662;-50
2022/01/29 04:02:44;;;;;;;4.20;2.70;;;1.80;99.90;;;;;;5066070;28;20227;-51
2022/01/29 04:05:11;;;;;;;7.47;2.30;;;1.80;99.90;;;;;;5063954;28;20277;-54
2022/01/29 04:07:37;;;;;;;2.50;2.07;;;1.90;99.90;;;;;;5066734;28;20207;-48
2022/01/29 04:10:04;;;;;;;2.90;2.33;;;1.90;99.90;;;;;;5064563;28;20186;-51
2022/01/29 04:12:36;;;;;;;3.17;2.83;;;1.90;99.90;;;;;;5066041;28;20204;-51
2022/01/29 04:15:02;;;;;;;1.97;1.43;;;2.00;99.90;;;;;;5065865;28;20190;-52
2022/01/29 04:17:27;;;;;;;2.80;2.43;;;1.90;99.90;;;;;;5064809;28;20193;-52
2022/01/29 04:19:53;;;;;;;4.20;2.43;;;2.00;99.90;;;;;;5066386;28;20185;-58
2022/01/29 04:22:19;;;;;;;3.40;2.47;;;2.00;99.90;;;;;;5065052;28;20257;-51
2022/01/29 04:24:45;;;;;;;4.60;2.50;;;2.00;99.90;;;;;;5066387;28;20193;-55
2022/01/29 04:27:17;;;;;;;2.57;2.37;;;1.90;99.90;;;;;;5064086;28;20201;-56
2022/01/29 04:29:58;;;;;;;3.23;2.20;;;1.80;99.90;;;;;;5065767;28;20220;-52
2022/01/29 04:32:54;;;;;;;3.37;2.27;;;1.80;99.90;;;;;;5065706;28;20196;-56
2022/01/29 04:35:12;;;;;;;2.40;2.20;;;1.80;99.90;;;;;;5080932;28;20198;-49
2022/01/29 04:37:38;;;;;;;43.60;19.77;;;1.80;99.90;;;;;;5066071;28;20231;-53
2022/01/29 04:40:05;;;;;;;18.10;5.77;;;1.90;99.90;;;;;;5080444;28;20301;-51
2022/01/29 04:42:31;;;;;;;3.20;2.10;;;1.90;99.90;;;;;;5065269;28;20196;-51
2022/01/29 04:44:56;;;;;;;3.07;2.67;;;1.90;99.90;;;;;;5064933;28;20193;-58
2022/01/29 04:47:22;;;;;;;3.17;2.37;;;1.90;99.90;;;;;;5064843;28;20247;-51
2022/01/29 04:49:48;;;;;;;1.67;1.67;;;1.90;99.90;;;;;;5065553;28;20255;-52
2022/01/29 04:52:14;;;;;;;10.80;2.90;;;1.90;99.90;;;;;;5064106;28;20182;-53
2022/01/29 04:54:40;;;;;;;3.37;2.67;;;1.90;99.90;;;;;;5065557;28;20189;-55
2022/01/29 04:57:05;;;;;;;2.63;2.13;;;1.80;99.90;;;;;;5063799;28;20193;-52
2022/01/29 04:59:31;;;;;;;2.50;2.07;;;1.80;99.90;;;;;;5065538;28;20190;-51
2022/01/29 05:01:57;;;;;;;4.03;2.37;;;1.90;99.90;;;;;;5064178;28;20194;-55
2022/01/29 05:04:23;;;;;;;4.13;2.30;;;1.90;99.90;;;;;;5065125;28;20190;-53
2022/01/29 05:06:49;;;;;;;2.57;1.83;;;1.90;99.90;;;;;;5065295;28;20193;-57
2022/01/29 05:09:15;;;;;;;22.13;9.90;;;1.90;99.90;;;;;;5064831;28;20570;-53
2022/01/29 05:11:44;;;;;;;3.13;2.93;;;1.90;99.90;;;;;;5065268;28;20186;-50
2022/01/29 05:14:17;;;;;;;2.87;2.40;;;2.00;99.90;;;;;;5064704;28;20193;-51
2022/01/29 05:27:50;;;;;;;1.83;1.73;;;2.30;99.90;;;;;;5081129;28;20309;-50
2022/01/29 05:30:16;;;;;;;2.23;2.03;;;2.30;99.90;;;;;;5067578;28;20194;-54
2022/01/29 05:32:42;;;;;;;2.50;1.90;;;2.10;99.90;;;;;;5067451;28;20182;-55
2022/01/29 05:35:08;;;;;;;2.00;1.90;;;2.40;99.90;;;;;;5067765;28;20174;-48
2022/01/29 05:37:34;;;;;;;1.87;1.40;;;2.50;99.90;;;;;;5068242;28;20178;-51
2022/01/29 05:39:59;;;;;;;3.10;2.47;;;2.80;99.90;;;;;;5066890;28;20217;-51
2022/01/29 05:42:25;;;;;;;3.43;2.33;;;2.60;99.90;;;;;;5068200;28;20185;-49
2022/01/29 05:44:51;;;;;;;2.40;2.00;;;2.70;99.90;;;;;;5066796;28;20174;-52
2022/01/29 05:47:17;;;;;;;2.43;1.50;;;2.40;99.90;;;;;;5068392;28;20265;-49
2022/01/29 05:49:43;;;;;;;4.13;3.03;;;2.50;99.90;;;;;;5066477;28;20209;-54
2022/01/29 05:52:09;;;;;;;3.93;2.70;;;2.90;99.90;;;;;;5068018;28;20193;-51
2022/01/29 05:54:35;;;;;;;2.60;2.10;;;2.80;99.90;;;;;;5068053;28;20178;-50
2022/01/29 05:57:00;;;;;;;1.70;1.37;;;2.70;99.90;;;;;;5064034;28;20193;-54
2022/01/29 05:59:26;;;;;;;3.80;3.03;;;2.50;99.90;;;;;;5067725;28;20228;-52
2022/01/29 06:01:52;;;;;;;2.33;1.60;;;2.40;99.90;;;;;;5066503;28;20571;-57
2022/01/29 06:04:17;;;;;;;46.70;20.60;;;2.40;99.90;;;;;;5068064;28;20178;-55
2022/01/29 06:06:43;;;;;;;2.27;2.03;;;2.50;99.90;;;;;;5066354;28;20277;-52
2022/01/29 06:09:09;;;;;;;2.73;2.00;;;2.60;99.90;;;;;;5067811;28;20306;-47
2022/01/29 06:11:35;;;;;;;2.97;2.77;;;2.50;99.90;;;;;;5067223;28;20182;-47
2022/01/29 06:14:01;;;;;;;3.17;2.00;;;2.60;99.90;;;;;;5067560;28;20193;-49
2022/01/29 06:16:28;;;;;;;2.67;2.20;;;2.40;99.90;;;;;;5067657;28;20192;-45
2022/01/29 06:18:54;;;;;;;2.77;2.50;;;2.70;99.90;;;;;;5066471;28;20181;-49
2022/01/29 06:21:19;;;;;;;3.27;2.87;;;2.80;99.90;;;;;;5067602;28;20178;-50
2022/01/29 06:23:45;;;;;;;20.80;9.50;;;2.60;99.90;;;;;;5065398;28;20178;-51
2022/01/29 06:26:12;;;;;;;1.83;1.73;;;2.70;99.90;;;;;;5067167;28;20174;-48
2022/01/29 06:28:39;;;;;;;11.47;2.60;;;2.50;99.90;;;;;;5065211;28;20214;-53
2022/01/29 06:31:06;;;;;;;4.10;2.50;;;2.40;99.90;;;;;;5066923;28;20205;-52
2022/01/29 06:33:32;;;;;;;6.57;1.73;;;2.40;99.90;;;;;;5066948;28;20190;-54
2022/01/29 06:35:59;;;;;;;2.53;1.83;;;2.30;99.90;;;;;;5066692;28;20188;-48
2022/01/29 06:38:24;;;;;;;2.97;1.67;;;2.20;99.90;;;;;;5066610;28;20185;-51
2022/01/29 06:40:51;;;;;;;4.93;2.37;;;2.30;99.90;;;;;;5065584;28;20190;-49
2022/01/29 06:43:18;;;;;;;2.80;2.13;;;2.30;99.90;;;;;;5051816;28;20182;-53
2022/01/29 06:45:46;;;;;;;2.63;2.30;;;2.20;99.90;;;;;;5060817;28;20201;-52
2022/01/29 06:48:13;;;;;;;2.20;2.10;;;2.20;99.90;;;;;;5066612;28;20208;-48
2022/01/29 06:50:39;;;;;;;4.43;1.57;;;2.10;99.90;;;;;;5065760;28;20281;-47
2022/01/29 06:53:06;;;;;;;2.50;2.30;;;2.20;99.90;;;;;;5066106;28;20182;-51
2022/01/29 06:55:32;;;;;;;3.17;1.97;;;2.20;99.90;;;;;;5065880;28;20192;-50
2022/01/29 06:57:59;;;;;;;2.60;2.07;;;2.20;99.90;;;;;;5065923;28;20273;-51
2022/01/29 07:00:25;;;;;;;3.73;1.83;;;2.20;99.90;;;;;;5065733;28;20182;-51
2022/01/29 07:02:51;;;;;;;2.07;1.87;;;2.20;99.90;;;;;;5064903;28;20182;-48
2022/01/29 07:05:17;;;;;;;2.03;1.93;;;2.40;99.90;;;;;;5066899;28;20224;-53
2022/01/29 07:07:42;;;;;;;1.77;1.67;;;2.40;99.90;;;;;;5065424;28;20231;-49
2022/01/29 07:10:09;;;;;;;3.80;2.63;;;2.40;99.90;;;;;;5065513;28;20170;-48
2022/01/29 07:12:40;;;;;;;3.53;1.53;;;2.40;99.90;;;;;;5066508;28;20213;-51
2022/01/29 07:15:07;;;;;;;1.80;1.70;;;2.50;99.90;;;;;;5064876;28;20197;-48
2022/01/29 07:17:35;;;;;;;3.73;2.10;;;2.50;99.90;;;;;;5066483;28;20202;-49
2022/01/29 07:20:02;;;;;;;4.57;2.27;;;2.50;99.90;;;;;;5057675;28;20259;-49
2022/01/29 07:22:28;;;;;;;1.63;1.53;;;2.60;99.90;;;;;;5080480;28;20181;-48
2022/01/29 07:24:54;;;;;;;2.57;1.40;;;2.50;99.90;;;;;;5059036;28;20177;-51
2022/01/29 07:27:20;;;;;;;2.60;1.70;;;2.60;99.90;;;;;;5066903;28;20185;-54
2022/01/29 07:29:45;;;;;;;5.13;2.37;;;2.60;99.90;;;;;;5082394;28;20213;-51
2022/01/29 07:32:11;;;;;;;4.67;2.17;;;2.60;99.90;;;;;;5045477;28;20185;-60
2022/01/29 07:34:38;;;;;;;4.10;2.73;;;2.60;99.90;;;;;;5066805;28;20198;-61
2022/01/29 07:37:04;;;;;;;1.83;1.73;;;2.60;99.90;;;;;;5064836;28;20202;-59
2022/01/29 07:39:30;;;;;;;1.73;1.63;;;2.60;99.90;;;;;;5066712;28;20225;-51
2022/01/29 07:41:57;;;;;;;2.40;1.80;;;2.60;99.90;;;;;;5044941;28;20190;-55
2022/01/29 07:44:24;;;;;;;1.93;1.27;;;2.60;99.90;;;;;;5047468;28;20198;-55
2022/01/29 07:46:50;;;;;;;2.30;1.93;;;2.70;99.90;;;;;;5058701;28;20274;-55
2022/01/29 07:49:16;;;;;;;5.43;2.20;;;2.60;99.90;;;;;;5065825;28;20218;-55
2022/01/29 07:51:42;;;;;;;5.83;2.23;;;2.70;99.90;;;;;;5066758;28;20197;-52
2022/01/29 07:54:09;;;;;;;2.53;2.03;;;2.70;99.90;;;;;;5064951;28;20292;-51
2022/01/29 07:56:35;;;;;;;1.37;1.27;;;2.60;99.90;;;;;;5064692;28;20218;-52
2022/01/29 07:59:02;;;;;;;3.63;2.73;;;2.60;99.90;;;;;;5065152;28;20276;-49
2022/01/29 08:01:29;;;;;;;2.23;1.73;;;2.70;99.90;;;;;;5066949;28;20190;-60
2022/01/29 08:03:55;;;;;;;2.63;1.87;;;2.70;99.90;;;;;;5065032;28;20178;-53
2022/01/29 08:06:22;;;;;;;1.70;1.60;;;2.60;99.90;;;;;;5057265;28;20194;-57
2022/01/29 08:08:48;;;;;;;3.73;2.60;;;2.70;99.90;;;;;;5046420;28;20222;-52
2022/01/29 08:11:15;;;;;;;7.00;2.33;;;2.70;99.90;;;;;;5045813;28;20194;-58
2022/01/29 08:13:43;;;;;;;2.40;1.87;;;2.70;99.90;;;;;;5046288;28;20194;-58
2022/01/29 08:16:10;;;;;;;1.53;1.47;;;2.70;99.90;;;;;;5057740;28;20186;-60
2022/01/29 08:18:36;;;;;;;3.10;1.97;;;2.80;99.90;;;;;;5062178;28;20190;-58
2022/01/29 08:21:01;;;;;;;1.90;1.80;;;2.80;99.90;;;;;;5061584;28;20281;-56
2022/01/29 08:23:27;;;;;;;2.73;1.97;;;2.90;99.90;;;;;;5063034;28;20186;-63
2022/01/29 08:25:53;;;;;;;6.07;2.13;;;2.80;99.90;;;;;;5062283;28;20213;-54
2022/01/29 08:28:19;;;;;;;3.10;2.07;;;3.00;99.90;;;;;;5061950;28;20301;-55
2022/01/29 08:30:45;;;;;;;1.33;1.23;;;2.90;99.90;;;;;;5079566;28;20186;-42
2022/01/29 08:33:17;;;;;;;1.93;1.23;;;2.90;99.90;;;;;;5062023;28;20198;-53
2022/01/29 08:35:46;;;;;;;2.80;1.93;;;2.90;99.90;;;;;;5063621;28;21240;-60
2022/01/29 08:38:12;;;;;;;1.53;1.40;;;2.90;99.90;;;;;;5061466;28;20191;-54
2022/01/29 08:40:37;;;;;;;3.03;2.53;;;3.00;99.90;;;;;;5062586;28;20222;-52
2022/01/29 08:43:03;;;;;;;2.80;1.40;;;3.00;99.90;;;;;;5078161;28;20181;-52
2022/01/29 08:45:29;;;;;;;1.53;1.43;;;3.00;99.90;;;;;;5062780;28;20286;-49
2022/01/29 08:47:55;;;;;;;1.77;1.60;;;2.90;99.90;;;;;;5062887;28;22145;-59
2022/01/29 08:50:21;;;;;;;2.30;1.43;;;2.90;99.90;;;;;;5062848;28;20190;-59
2022/01/29 08:52:48;;;;;;;1.03;1.03;;;2.90;99.90;;;;;;5066753;28;20191;-47
2022/01/29 08:55:14;;;;;;;2.77;1.47;;;3.00;99.90;;;;;;5064879;28;20189;-47
2022/01/29 08:57:40;;;;;;;1.53;1.43;;;3.00;99.90;;;;;;5066848;28;20179;-46
2022/01/29 09:00:08;;;;;;;2.40;1.30;;;3.00;99.90;;;;;;5065119;28;20217;-52
2022/01/29 09:02:35;;;;;;;3.17;1.30;;;3.10;99.90;;;;;;5066764;28;20189;-51
2022/01/29 09:05:01;;;;;;;2.53;1.10;;;3.10;99.90;;;;;;5066208;28;20182;-59
2022/01/29 09:07:28;;;;;;;1.30;1.20;;;3.20;99.90;;;;;;5065864;28;20190;-46
2022/01/29 09:09:54;;;;;;;1.40;1.30;;;3.10;99.90;;;;;;5066185;28;20305;-48
2022/01/29 09:12:21;;;;;;;1.77;1.67;;;3.10;99.90;;;;;;5064748;28;20305;-63
2022/01/29 09:14:48;;;;;;;1.10;1.10;;;3.00;99.90;;;;;;5066755;28;20202;-58
2022/01/29 09:17:14;;;;;;;2.13;1.40;;;3.10;99.90;;;;;;5064728;28;20236;-59
2022/01/29 09:19:40;;;;;;;3.07;1.17;;;2.90;99.90;;;;;;5066203;28;20190;-52
2022/01/29 09:22:06;;;;;;;0.90;0.90;;;3.10;99.90;;;;;;5065561;28;20198;-52
2022/01/29 09:24:32;;;;;;;1.70;1.53;;;3.20;99.90;;;;;;5065752;28;20233;-54
2022/01/29 09:26:59;;;;;;;1.63;1.53;;;3.20;99.90;;;;;;5065860;28;20278;-50
2022/01/29 09:29:25;;;;;;;1.90;1.13;;;3.10;99.90;;;;;;5064915;28;20217;-48
2022/01/29 09:31:50;;;;;;;1.63;1.20;;;3.20;99.90;;;;;;5065811;28;20200;-49
2022/01/29 09:34:16;;;;;;;1.07;1.00;;;3.20;99.90;;;;;;5064527;28;20256;-51
2022/01/29 09:36:42;;;;;;;0.80;0.80;;;3.10;99.90;;;;;;5066314;28;20232;-60
2022/01/29 09:39:09;;;;;;;1.30;1.30;;;3.20;99.90;;;;;;5064237;28;20210;-61
2022/01/29 09:41:41;;;;;;;1.70;1.63;;;3.30;99.90;;;;;;5084701;28;20200;-60
2022/01/29 09:44:08;;;;;;;0.57;0.57;;;3.20;99.90;;;;;;5084429;28;20190;-61
2022/01/29 09:46:35;;;;;;;1.03;0.77;;;3.30;99.90;;;;;;5067299;28;20589;-53
2022/01/29 09:49:01;;;;;;;1.27;1.17;;;3.40;99.90;;;;;;5066885;28;20217;-45
2022/01/29 09:51:27;;;;;;;1.27;1.13;;;3.40;99.90;;;;;;5065527;28;20200;-61
2022/01/29 09:53:54;;;;;;;1.20;1.07;;;3.40;99.90;;;;;;5067561;28;20170;-62
2022/01/29 09:56:19;;;;;;;1.30;1.20;;;3.40;99.90;;;;;;5066111;28;20166;-61
2022/01/29 09:58:46;;;;;;;1.57;1.47;;;3.40;99.90;;;;;;5068251;28;20227;-49
2022/01/29 10:01:12;;;;;;;0.80;0.80;;;3.50;99.90;;;;;;5067438;28;20170;-57
2022/01/29 10:03:37;;;;;;;1.47;1.37;;;3.40;99.90;;;;;;5066005;28;20204;-59
2022/01/29 10:06:04;;;;;;;1.33;1.23;;;3.50;99.90;;;;;;5058672;28;20308;-63
2022/01/29 10:08:41;;;;;;;1.30;1.07;;;3.50;99.90;;;;;;5064603;28;20252;-63
2022/01/29 10:11:25;;;;;;;1.27;1.00;;;3.60;99.90;;;;;;5067255;28;20182;-48
2022/01/29 10:13:58;;;;;;;1.33;0.70;;;3.60;99.90;;;;;;5066407;28;20257;-48
2022/01/29 10:16:26;;;;;;;3.93;0.73;;;3.70;99.90;;;;;;5063977;28;20190;-59
2022/01/29 10:19:03;;;;;;;0.67;0.67;;;3.70;99.90;;;;;;5047721;28;20193;-51
2022/01/29 10:21:34;;;;;;;4.47;1.57;;;3.70;99.90;;;;;;5046543;28;20279;-46
2022/01/29 10:24:06;;;;;;;1.10;1.00;;;3.60;99.90;;;;;;5048236;28;20187;-58
2022/01/29 10:26:39;;;;;;;0.90;0.90;;;3.70;99.90;;;;;;5063318;28;20273;-61
2022/01/29 10:29:15;;;;;;;2.53;1.03;;;3.80;99.90;;;;;;5098790;28;20218;-56
2022/01/29 10:31:47;;;;;;;2.47;0.97;;;3.80;99.90;;;;;;5098206;28;20189;-54
2022/01/29 10:34:29;;;;;;;0.53;0.53;;;3.80;99.90;;;;;;5066071;28;20198;-56
2022/01/29 10:37:18;;;;;;;1.13;0.80;;;3.80;99.90;;;;;;5066073;28;20220;-60
2022/01/29 10:39:50;;;;;;;1.23;0.70;;;3.70;99.90;;;;;;5071618;28;20230;-53
2022/01/29 10:42:27;;;;;;;2.07;1.23;;;3.80;99.90;;;;;;5059981;28;20174;-51
2022/01/29 10:45:01;;;;;;;1.73;1.10;;;3.80;99.90;;;;;;5061444;28;20186;-60
2022/01/29 10:47:27;;;;;;;2.63;1.53;;;3.80;99.90;;;;;;5059504;28;20212;-55
2022/01/29 10:50:05;;;;;;;0.77;0.77;;;3.80;99.90;;;;;;5055581;28;20242;-63
2022/01/29 10:52:33;;;;;;;0.87;0.87;;;3.80;99.90;;;;;;5060567;28;20186;-60
2022/01/29 10:55:03;;;;;;;0.70;0.70;;;3.80;99.90;;;;;;5061942;28;20189;-54
2022/01/29 10:57:40;;;;;;;2.50;1.70;;;3.90;99.90;;;;;;5058762;28;20328;-60
2022/01/29 11:00:11;;;;;;;1.37;1.20;;;4.00;99.90;;;;;;5059550;28;20185;-50
2022/01/29 11:02:38;;;;;;;2.20;0.90;;;4.00;99.90;;;;;;5062100;28;20191;-54
2022/01/29 11:05:05;;;;;;;1.10;1.10;;;4.00;99.90;;;;;;5061802;28;20182;-50
2022/01/29 11:07:34;;;;;;;0.83;0.83;;;4.00;99.90;;;;;;5063340;28;20300;-59
2022/01/29 11:10:02;;;;;;;1.40;1.03;;;4.10;99.90;;;;;;5053563;28;20309;-59
2022/01/29 11:12:30;;;;;;;1.53;1.43;;;4.10;99.90;;;;;;5064222;28;20273;-54
2022/01/29 11:14:59;;;;;;;2.07;1.70;;;4.10;99.90;;;;;;5063050;28;20205;-60
2022/01/29 11:17:26;;;;;;;1.97;1.20;;;4.10;99.90;;;;;;5061572;28;20186;-47
2022/01/29 11:19:54;;;;;;;1.53;1.43;;;4.10;99.90;;;;;;5055831;28;20270;-49
2022/01/29 11:22:27;;;;;;;1.80;1.17;;;4.10;99.90;;;;;;5063229;28;20186;-59
2022/01/29 11:25:17;;;;;;;1.83;0.90;;;4.20;99.90;;;;;;5065453;28;20194;-44
2022/01/29 11:27:42;;;;;;;1.43;0.90;;;4.30;99.90;;;;;;5061365;28;20235;-52
2022/01/29 11:30:08;;;;;;;2.33;1.40;;;4.40;99.90;;;;;;5065169;28;20181;-61
2022/01/29 11:32:44;;;;;;;1.70;0.73;;;4.40;99.90;;;;;;5065899;28;20170;-60
2022/01/29 11:35:14;;;;;;;1.40;1.20;;;4.40;99.90;;;;;;5064649;28;20189;-59
2022/01/29 11:37:44;;;;;;;1.53;1.13;;;4.50;99.90;;;;;;5065145;28;20281;-60
2022/01/29 11:40:23;;;;;;;1.63;1.50;;;4.60;99.90;;;;;;5063451;28;20221;-54
2022/01/29 11:42:53;;;;;;;0.97;0.97;;;4.60;99.90;;;;;;5064049;28;20201;-56
2022/01/29 11:45:45;;;;;;;2.60;1.17;;;4.60;99.90;;;;;;5066024;28;20185;-57
2022/01/29 11:48:26;;;;;;;1.83;1.40;;;4.70;99.90;;;;;;5060756;28;20232;-47
2022/01/29 11:50:53;;;;;;;2.03;1.43;;;4.60;99.90;;;;;;5082652;28;20178;-60
2022/01/29 11:53:19;;;;;;;1.40;1.30;;;4.80;99.90;;;;;;5064210;28;20174;-52
2022/01/29 11:55:48;;;;;;;1.70;1.47;;;4.90;99.90;;;;;;5065691;28;20174;-62
2022/01/29 11:58:16;;;;;;;1.93;0.80;;;4.90;99.90;;;;;;5059524;28;20181;-46
2022/01/29 12:00:45;;;;;;;1.43;1.00;;;4.80;99.90;;;;;;5063690;28;20210;-46
2022/01/29 12:03:43;;;;;;;1.00;0.97;;;4.90;99.90;;;;;;5065948;28;20178;-44
2022/01/29 12:08:40;;;;;;;1.23;1.13;;;5.20;99.90;;;;;;5081891;28;20355;-52
2022/01/29 12:11:10;;;;;;;1.23;1.13;;;5.00;99.90;;;;;;5079750;28;20189;-59
2022/01/29 12:13:36;;;;;;;0.67;0.67;;;5.00;99.90;;;;;;5064675;28;20194;-52
2022/01/29 12:16:02;;;;;;;1.30;1.20;;;5.10;99.90;;;;;;5066947;28;20201;-62
2022/01/29 12:18:36;;;;;;;0.97;0.87;;;5.00;99.90;;;;;;5064639;28;20258;-46
2022/01/29 12:21:04;;;;;;;1.17;1.13;;;5.10;99.90;;;;;;5045913;28;20186;-43
2022/01/29 12:23:44;;;;;;;1.17;1.00;;;5.20;99.90;;;;;;5060294;28;20182;-54
2022/01/29 12:26:09;;;;;;;0.73;0.73;;;5.20;99.90;;;;;;5061779;28;20190;-52
2022/01/29 12:28:35;;;;;;;1.80;0.80;;;5.40;99.90;;;;;;5062950;28;20218;-48
2022/01/29 12:31:04;;;;;;;2.10;0.97;;;5.30;99.90;;;;;;5062324;28;20273;-59
2022/01/29 12:33:33;;;;;;;1.30;1.20;;;5.40;99.90;;;;;;5063330;28;20202;-60
2022/01/29 12:36:05;;;;;;;2.13;0.97;;;5.50;99.90;;;;;;5061869;28;20210;-60
2022/01/29 12:38:43;;;;;;;0.60;0.60;;;5.40;99.90;;;;;;5063100;28;20186;-55
2022/01/29 12:41:11;;;;;;;1.07;0.77;;;5.40;99.90;;;;;;5062195;28;20190;-59
2022/01/29 12:44:01;;;;;;;3.23;0.83;;;5.50;99.90;;;;;;5062681;28;20198;-60
2022/01/29 12:46:30;;;;;;;1.33;0.47;;;5.60;99.90;;;;;;5063191;28;20193;-54
2022/01/29 12:49:07;;;;;;;0.43;0.40;;;5.50;99.90;;;;;;5062258;28;20218;-45
2022/01/29 12:51:49;;;;;;;1.07;0.97;;;5.40;99.90;;;;;;5063706;28;20186;-48
2022/01/29 12:54:15;;;;;;;1.43;0.70;;;5.40;99.90;;;;;;5062380;28;20191;-53
2022/01/29 12:56:41;;;;;;;0.80;0.80;;;5.40;99.90;;;;;;5062321;28;20179;-46
2022/01/29 12:59:10;;;;;;;1.03;1.00;;;5.30;99.90;;;;;;5062863;28;20202;-62
2022/01/29 13:01:38;;;;;;;0.73;0.63;;;5.40;99.90;;;;;;5061891;28;20178;-60
2022/01/29 13:04:13;;;;;;;0.63;0.63;;;5.50;99.90;;;;;;5062965;28;20185;-55
2022/01/29 13:06:40;;;;;;;0.77;0.77;;;5.50;99.90;;;;;;5060885;28;20583;-56
2022/01/29 13:09:14;;;;;;;1.10;0.63;;;5.60;99.90;;;;;;5062749;28;20221;-49
2022/01/29 13:11:41;;;;;;;0.70;0.70;;;5.60;99.90;;;;;;5062464;28;20197;-63
2022/01/29 13:14:26;;;;;;;0.40;0.40;;;5.60;99.90;;;;;;5061892;28;20212;-51
2022/01/29 13:16:54;;;;;;;0.43;0.43;;;5.60;99.90;;;;;;5063184;28;20265;-48
2022/01/29 13:19:22;;;;;;;0.53;0.50;;;5.60;99.90;;;;;;5060935;28;20195;-44
2022/01/29 13:21:48;;;;;;;0.40;0.40;;;5.50;99.90;;;;;;5062736;28;20225;-57